• Join FlightAware (Why Join?)
  • Login
  • US Flag 
Rudolph Flight #1: Arrived! 
05:09AM EST


 

Airport Tracker/Info


-or-


 

Live Flight TrackerFlight Track Log ✈ FLG4018 ✈ 10-Nov-2013 ✈ KSAW - KDTW

Flight Track Log - Related Links

Times and Time Zones

All times are in EST time to prevent confusion due to time zone crossing. See the FLG4018 flight status page for this flight to view local times or setup timezone preferences in your user account.

Time Position Orientation Groundspeed Altitude Reporting Facility
EST Latitude Longitude Course Direction KTS MPH feet Rate Location/Type
05:20PM 46.3439 -87.3981 157° South 93 107 1,600  Level Minneapolis Center
05:21PM 46.3058 -87.3747 157° South 148 170 4,400 2,520 Climbing Minneapolis Center
05:22PM 46.2569 -87.3178 141° Southeast 223 257 6,900 2,820 Climbing Minneapolis Center
05:23PM 46.1917 -87.2414 141° Southeast 276 318 10,200 2,280 Climbing Minneapolis Center
05:24PM 46.1186 -87.1581 142° Southeast 338 389 11,600 1,500 Climbing Minneapolis Center
05:25PM 46.0328 -87.0600 142° Southeast 386 444 13,400 1,920 Climbing Minneapolis Center
05:26PM 45.9425 -86.9567 141° Southeast 407 468 15,600 2,100 Climbing Minneapolis Center
05:27PM 45.8506 -86.8519 142° Southeast 414 476 17,800 1,740 Climbing Minneapolis Center
05:28PM 45.7578 -86.7494 142° Southeast 419 482 19,300 1,440 Climbing Minneapolis Center
05:29PM 45.6633 -86.6444 142° Southeast 426 490 20,800 1,260 Climbing Minneapolis Center
05:30PM 45.5644 -86.5325 142° Southeast 447 514 22,000 1,020 Climbing Minneapolis Center
05:31PM 45.4611 -86.4167 142° Southeast 465 535 23,000 960 Climbing Minneapolis Center
05:32PM 45.3544 -86.3006 143° Southeast 477 549 24,000 840 Climbing Minneapolis Center
05:33PM 45.2450 -86.1783 142° Southeast 491 565 24,800 780 Climbing Minneapolis Center
05:34PM 45.1294 -86.0531 143° Southeast 509 586 25,700 840 Climbing Minneapolis Center
05:35PM 44.9908 -85.8983 142° Southeast 526 605 26,600 600 Climbing Minneapolis Center
05:37PM 44.8753 -85.7733 143° Southeast 525 604 27,000 180 Climbing Minneapolis Center
05:38PM 44.7528 -85.6414 143° Southeast 527 606 27,000  Level Minneapolis Center
05:39PM 44.6356 -85.5092 141° Southeast 534 615 27,000  Level Minneapolis Center
05:40PM 44.5261 -85.3619 136° Southeast 543 625 27,000  Level Minneapolis Center
05:41PM 44.4169 -85.2181 137° Southeast 541 623 27,000  Level Minneapolis Center
05:42PM 44.3075 -85.0758 137° Southeast 539 620 27,000 -360 Level Minneapolis Center
05:43PM 44.1989 -84.9342 137° Southeast 536 617 26,300 -840 Descending Minneapolis Center
05:44PM 44.0911 -84.7931 137° Southeast 533 613 25,300 -1,020 Descending Minneapolis Center
05:45PM 43.9681 -84.6344 137° Southeast 528 608 24,200 -1,140 Descending Minneapolis Center
05:46PM 43.8600 -84.4969 137° Southeast 526 605 23,000 -600 Descending Minneapolis Center
05:47PM 43.7544 -84.3594 137° Southeast 523 602 23,000  Level Minneapolis Center
05:48PM 43.6456 -84.2231 138° Southeast 526 605 23,000 -360 Level Minneapolis Center
05:49PM 43.5444 -84.0956 138° Southeast 505 581 22,300 -1,140 Descending Minneapolis Center
05:50PM 43.4697 -83.9783 131° Southeast 447 514 20,700 -1,860 Descending Minneapolis Center
05:51PM 43.4172 -83.8003 112° Southeast 425 489 18,600 -1,680 Descending Minneapolis Center
05:52PM 43.3478 -83.7428 149° Southeast 392 451 17,700 -1,140 Descending Cleveland Center
05:53PM 43.2539 -83.7339 176° South 347 399 16,600 -1,140 Descending Cleveland Center
05:54PM 43.1589 -83.7331 180° South 343 395 15,400 -1,080 Descending Cleveland Center
05:55PM 43.0642 -83.7342 180° South 342 394 14,400 -1,080 Descending Cleveland Center
05:55PM 43.0258 -83.7358 182° South 342 394 14,000 -1,140 Descending Cleveland Center
05:55PM 42.9881 -83.7358 180° South 340 391 13,600 -840 Descending Cleveland Center
05:56PM 42.9694 -83.7347 177° South 341 392 13,400 -900 Descending Cleveland Center
05:57PM 42.8764 -83.7342 180° South 337 388 12,400 -900 Descending Cleveland Center
05:58PM 42.7972 -83.7103 168° South 345 397 11,900 -780 Descending Cleveland Center
05:58PM 42.7683 -83.6939 157° South 349 402 11,600 -1,020 Descending Cleveland Center
05:59PM 42.7128 -83.6639 158° South 325 374 10,900 -1,020 Descending Cleveland Center
05:59PM 42.6856 -83.6436 151° Southeast 330 380 10,600 -1,380 Descending Cleveland Center
06:00PM 42.6325 -83.5953 146° Southeast 329 379 9,500 -1,500 Descending Cleveland Center
06:00PM 42.6178 -83.5686 127° Southeast 329 379 9,100 -1,380 Descending Cleveland Center
06:01PM 42.5772 -83.4964 127° Southeast 292 336 8,000 -1,260 Descending Cleveland Center
06:01PM 42.5667 -83.4772 127° Southeast 304 350 7,800 -1,320 Descending Cleveland Center
06:02PM 42.5317 -83.4106 125° Southeast 299 344 6,800 -1,260 Descending Cleveland Center
06:02PM 42.5181 -83.3858 127° Southeast 299 344 6,500 -1,560 Descending Cleveland Center
06:03PM 42.4828 -83.3100 122° Southeast 272 313 5,100 -1,560 Descending Cleveland Center
06:03PM 42.4761 -83.2983 128° Southeast 282 325 4,900 -1,020 Descending Cleveland Center
06:04PM 42.4308 -83.2800 163° South 192 221 4,100 -900 Descending Cleveland Center
06:04PM 42.4222 -83.2786 173° South 216 249 4,000 -300 Descending Cleveland Center
06:05PM 42.3803 -83.2817 183° South 172 198 3,800 -300 Descending Cleveland Center
06:05PM 42.3650 -83.2803 176° South 176 203 3,700 -600 Descending Cleveland Center
06:06PM 42.3317 -83.2889 191° South 177 204 3,200 -780 Descending Cleveland Center
06:06PM 42.3181 -83.2944 197° South 174 200 2,900 -1,020 Descending Cleveland Center
06:07PM 42.2936 -83.3175 215° Southwest 162 186 2,300 -900 Descending Cleveland Center
06:07PM 42.2794 -83.3253 202° Southwest 166 191 2,000 -840 Descending Cleveland Center
06:08PM 42.2561 -83.3431 209° Southwest 127 146 1,400 -780 Descending Cleveland Center
06:08PM 42.2481 -83.3492 209° Southwest 144 166 1,200 -480 Descending Cleveland Center
06:09PM 42.2144 -83.3750 210° Southwest 133 153 800 -420 Descending Cleveland Center